createdAt,value
2023-03-13T00:01:35.023Z,99307.19
2023-03-13T00:04:02.009Z,99299.00
2023-03-13T00:06:38.044Z,99294.50
2023-03-13T00:09:08.307Z,99296.97
2023-03-13T00:11:35.538Z,99287.94
2023-03-13T00:14:06.902Z,99286.28
2023-03-13T00:16:35.617Z,99282.59
2023-03-13T00:19:03.341Z,99274.59
2023-03-13T00:21:31.033Z,99274.59
2023-03-13T00:24:00.154Z,99271.94
2023-03-13T00:26:30.667Z,99267.41
2023-03-13T00:28:57.739Z,99261.25
2023-03-13T00:31:31.224Z,99266.59
2023-03-13T00:34:02.058Z,99249.78
2023-03-13T00:36:32.664Z,99248.97
2023-03-13T00:39:02.129Z,99239.31
2023-03-13T00:41:32.139Z,99236.66
2023-03-13T00:43:59.801Z,99231.31
2023-03-13T00:46:29.424Z,99228.81
2023-03-13T00:48:57.354Z,99229.66
2023-03-13T00:51:27.791Z,99213.66
2023-03-13T00:53:56.419Z,99217.34
2023-03-13T00:56:23.454Z,99217.34
2023-03-13T00:58:50.972Z,99207.50
2023-03-13T01:01:28.088Z,99207.69
2023-03-13T01:04:07.531Z,99199.69
2023-03-13T01:06:37.659Z,99193.34
2023-03-13T01:09:06.688Z,99193.97
2023-03-13T01:11:37.977Z,99193.75
2023-03-13T01:14:19.917Z,99183.91
2023-03-13T01:16:47.392Z,99179.19
2023-03-13T01:19:16.686Z,99180.81
2023-03-13T01:21:45.779Z,99170.78
2023-03-13T01:24:13.187Z,99168.72
2023-03-13T01:26:40.212Z,99162.94
2023-03-13T01:29:07.232Z,99159.28
2023-03-13T01:31:35.823Z,99156.41
2023-03-13T01:34:05.639Z,99150.03
2023-03-13T01:36:35.249Z,99147.16
2023-03-13T01:39:02.338Z,99138.94
2023-03-13T01:41:31.118Z,99134.22
2023-03-13T01:43:58.525Z,99131.34
2023-03-13T01:46:30.910Z,99137.28
2023-03-13T01:49:29.824Z,99129.94
2023-03-13T01:52:12.960Z,99132.19
2023-03-13T01:55:00.731Z,99125.81
2023-03-13T01:57:36.588Z,99122.09
2023-03-13T02:00:16.486Z,99118.44
2023-03-13T02:02:49.093Z,99119.03
2023-03-13T02:05:19.362Z,99115.34
2023-03-13T02:08:08.511Z,99108.97
2023-03-13T02:10:44.728Z,99108.97
2023-03-13T02:13:15.157Z,99099.91
2023-03-13T02:15:42.394Z,99094.59
2023-03-13T02:18:09.861Z,99090.88
2023-03-13T02:20:39.877Z,99088.03
2023-03-13T02:23:40.504Z,99088.41
2023-03-13T02:26:07.505Z,99081.03
2023-03-13T02:28:39.133Z,99078.13
2023-03-13T02:31:10.485Z,99072.34
2023-03-13T02:33:40.945Z,99063.13
2023-03-13T02:36:09.386Z,99068.03
2023-03-13T02:39:03.153Z,99060.63
2023-03-13T02:41:33.699Z,99053.22
2023-03-13T02:44:00.781Z,99055.47
2023-03-13T02:46:27.858Z,99042.72
2023-03-13T02:48:56.923Z,99041.69
2023-03-13T02:51:33.259Z,99044.97
2023-03-13T02:54:06.733Z,99037.78
2023-03-13T02:56:35.577Z,99037.56
2023-03-13T02:59:04.652Z,99039.00
2023-03-13T03:01:32.916Z,99030.75
2023-03-13T03:04:00.151Z,99028.09
2023-03-13T03:06:27.127Z,99018.81
2023-03-13T03:08:55.298Z,99013.47
2023-03-13T03:11:22.246Z,99011.41
2023-03-13T03:13:55.004Z,99007.50
2023-03-13T03:16:22.647Z,99004.38
2023-03-13T03:18:49.635Z,99002.53
2023-03-13T03:21:17.071Z,98999.66
2023-03-13T03:23:44.042Z,98989.56
2023-03-13T03:26:11.040Z,98991.00
2023-03-13T03:28:38.995Z,98992.44
2023-03-13T03:31:11.713Z,98985.00
2023-03-13T03:33:41.907Z,98991.97
2023-03-13T03:36:22.066Z,98985.81
2023-03-13T03:38:49.813Z,98978.41
2023-03-13T03:41:19.880Z,98985.38
2023-03-13T03:43:48.126Z,98994.81
2023-03-13T03:46:18.251Z,98988.44
2023-03-13T03:48:45.207Z,98992.50
2023-03-13T03:51:13.079Z,98989.66
2023-03-13T03:53:42.750Z,98992.69
2023-03-13T03:56:10.154Z,98982.41
2023-03-13T03:58:42.141Z,98983.00
2023-03-13T04:01:17.485Z,98983.38
2023-03-13T04:03:44.490Z,98984.78
2023-03-13T04:06:12.939Z,98973.06
2023-03-13T04:08:39.944Z,98988.03
2023-03-13T04:11:07.740Z,98995.41
2023-03-13T04:13:39.025Z,98995.19
2023-03-13T04:16:10.108Z,98982.66
2023-03-13T04:18:37.681Z,98996.63
2023-03-13T04:21:06.295Z,98995.78
2023-03-13T04:23:47.085Z,98993.72
2023-03-13T04:26:15.069Z,98981.41
2023-03-13T04:28:42.742Z,98972.94
2023-03-13T04:31:12.020Z,98974.78
2023-03-13T04:33:56.888Z,98962.47
2023-03-13T04:36:42.648Z,98960.84
2023-03-13T04:39:33.041Z,98967.00
2023-03-13T04:42:18.887Z,98972.34
2023-03-13T04:44:56.278Z,98960.03
2023-03-13T04:47:37.232Z,98965.38
2023-03-13T04:50:19.830Z,98962.69
2023-03-13T04:53:04.004Z,98949.53
2023-03-13T04:55:45.800Z,98954.69
2023-03-13T04:58:31.308Z,98947.66
2023-03-13T05:01:10.877Z,98953.00
2023-03-13T05:04:01.058Z,98946.84
2023-03-13T05:06:43.069Z,98955.69
2023-03-13T05:09:30.359Z,98956.72
2023-03-13T05:12:17.564Z,98949.75
2023-03-13T05:14:58.417Z,98948.94
2023-03-13T05:17:54.862Z,98951.63
2023-03-13T05:20:51.251Z,98953.47
2023-03-13T05:23:36.039Z,98946.50
2023-03-13T05:26:15.498Z,98944.06
2023-03-13T05:28:42.413Z,98941.38
2023-03-13T05:31:32.541Z,98939.53
2023-03-13T05:34:22.267Z,98932.53
2023-03-13T05:37:27.429Z,98930.88
2023-03-13T05:40:06.714Z,98929.88
2023-03-13T05:42:43.371Z,98917.31
2023-03-13T05:45:21.639Z,98921.84
2023-03-13T05:48:00.117Z,98932.53
2023-03-13T05:51:02.149Z,98925.53
2023-03-13T05:53:48.785Z,98922.88
2023-03-13T05:56:35.993Z,98931.69
2023-03-13T05:59:14.085Z,98927.19
2023-03-13T06:02:00.447Z,98926.97
2023-03-13T06:04:32.818Z,98923.25
2023-03-13T06:06:59.811Z,98919.53
2023-03-13T06:09:27.463Z,98917.69
2023-03-13T06:11:56.178Z,98913.78
2023-03-13T06:14:23.704Z,98911.91
2023-03-13T06:17:09.355Z,98916.81
2023-03-13T06:19:36.246Z,98922.53
2023-03-13T06:22:03.160Z,98911.84
2023-03-13T06:24:30.117Z,98918.38
2023-03-13T06:26:57.058Z,98918.13
2023-03-13T06:29:24.363Z,98917.69
2023-03-13T06:31:52.089Z,98925.50
2023-03-13T06:34:19.119Z,98912.72
2023-03-13T06:36:46.077Z,98932.63
2023-03-13T06:39:13.288Z,98929.72
2023-03-13T06:41:40.304Z,98933.84
2023-03-13T06:44:07.396Z,98936.28
2023-03-13T06:46:34.371Z,98929.88
2023-03-13T06:49:04.543Z,98951.28
2023-03-13T06:51:32.499Z,98933.13
2023-03-13T06:53:59.444Z,98936.44
2023-03-13T06:56:26.453Z,98925.72
2023-03-13T06:58:53.566Z,98924.22
2023-03-13T07:01:20.628Z,98899.13
2023-03-13T07:03:49.016Z,98911.47
2023-03-13T07:06:16.980Z,98912.28
2023-03-13T07:08:44.282Z,98894.38
2023-03-13T07:11:13.876Z,98886.94
2023-03-13T07:13:41.518Z,98892.88
2023-03-13T07:16:12.177Z,98876.38
2023-03-13T07:18:41.885Z,98875.13
2023-03-13T07:21:10.484Z,98890.13
2023-03-13T07:23:37.539Z,98871.78
2023-03-13T07:26:12.607Z,98862.72
2023-03-13T07:28:40.007Z,98856.91
2023-03-13T07:31:12.083Z,98844.50
2023-03-13T07:33:39.524Z,98853.13
2023-03-13T07:36:07.667Z,98846.03
2023-03-13T07:38:35.145Z,98861.63
2023-03-13T07:41:02.189Z,98864.88
2023-03-13T07:43:31.714Z,98866.06
2023-03-13T07:46:04.659Z,98885.97
2023-03-13T07:48:37.870Z,98887.16
2023-03-13T07:51:08.555Z,98891.38
2023-03-13T07:53:35.619Z,98886.16
2023-03-13T07:56:13.279Z,98884.66
2023-03-13T07:58:41.447Z,98877.78
2023-03-13T08:01:13.131Z,98896.28
2023-03-13T08:03:40.522Z,98871.75
2023-03-13T08:06:10.935Z,98872.09
2023-03-13T08:08:38.790Z,98873.50
2023-03-13T08:11:15.800Z,98872.47
2023-03-13T08:13:43.590Z,98882.50
2023-03-13T08:16:17.600Z,98885.75
2023-03-13T08:18:51.644Z,98897.03
2023-03-13T08:21:31.106Z,98880.97
2023-03-13T08:24:01.409Z,98890.88
2023-03-13T08:26:30.671Z,98898.09
2023-03-13T08:29:15.996Z,98890.06
2023-03-13T08:31:52.606Z,98889.81
2023-03-13T08:34:20.042Z,98886.09
2023-03-13T08:36:47.540Z,98884.81
2023-03-13T08:39:17.788Z,98888.09
2023-03-13T08:41:45.009Z,98889.69
2023-03-13T08:44:15.824Z,98893.19
2023-03-13T08:46:44.218Z,98900.41
2023-03-13T08:49:12.220Z,98897.50
2023-03-13T08:51:40.810Z,98891.13
2023-03-13T08:54:07.970Z,98893.56
2023-03-13T08:56:35.199Z,98891.69
2023-03-13T08:59:04.546Z,98886.91
2023-03-13T09:01:34.044Z,98892.03
2023-03-13T09:04:03.920Z,98891.81
2023-03-13T09:06:37.094Z,98887.84
2023-03-13T09:09:05.696Z,98882.25
2023-03-13T09:11:33.915Z,98894.59
2023-03-13T09:14:00.853Z,98903.25
2023-03-13T09:16:30.860Z,98907.56
2023-03-13T09:18:59.272Z,98917.22
2023-03-13T09:21:33.353Z,98881.34
2023-03-13T09:24:01.289Z,98886.25
2023-03-13T09:26:28.566Z,98878.31
2023-03-13T09:28:56.102Z,98886.00
2023-03-13T09:31:32.603Z,98881.34
2023-03-13T09:34:00.457Z,98874.00
2023-03-13T09:36:28.208Z,98884.63
2023-03-13T09:38:58.687Z,98876.91
2023-03-13T09:42:14.745Z,98875.41
2023-03-13T09:44:50.038Z,98877.84
2023-03-13T09:47:41.489Z,98864.19
2023-03-13T09:50:25.012Z,98868.28
2023-03-13T09:52:57.445Z,98871.28
2023-03-13T09:55:30.444Z,98864.31
2023-03-13T09:58:21.886Z,98872.91
2023-03-13T10:01:00.867Z,98856.03
2023-03-13T10:03:44.109Z,98862.19
2023-03-13T10:06:23.063Z,98848.56
2023-03-13T10:08:50.049Z,98838.66
2023-03-13T10:11:42.478Z,98835.16
2023-03-13T10:14:22.612Z,98837.03
2023-03-13T10:17:33.228Z,98834.09
2023-03-13T10:20:33.362Z,98832.47
2023-03-13T10:23:12.228Z,98822.88
2023-03-13T10:25:40.518Z,98828.84
2023-03-13T10:28:14.101Z,98832.09
2023-03-13T10:30:54.424Z,98828.13
2023-03-13T10:33:26.057Z,98819.59
2023-03-13T10:36:13.763Z,98803.59
2023-03-13T10:38:53.144Z,98812.34
2023-03-13T10:41:30.736Z,98810.63
2023-03-13T10:44:06.716Z,98802.19
2023-03-13T10:46:40.010Z,98789.44
2023-03-13T10:49:33.613Z,98797.69
2023-03-13T10:52:06.390Z,98789.47
2023-03-13T10:54:37.232Z,98788.25
2023-03-13T10:57:19.246Z,98769.84
2023-03-13T10:59:50.072Z,98772.16
2023-03-13T11:02:35.878Z,98760.41
2023-03-13T11:05:25.323Z,98757.91
2023-03-13T11:07:53.987Z,98758.63
2023-03-13T11:10:23.313Z,98738.91
2023-03-13T11:12:54.271Z,98720.75
2023-03-13T11:15:49.138Z,98712.91
2023-03-13T11:18:22.600Z,98720.06
2023-03-13T11:20:49.853Z,98721.81
2023-03-13T11:23:43.610Z,98712.81
2023-03-13T11:26:29.432Z,98702.44
2023-03-13T11:29:26.897Z,98695.22
2023-03-13T11:32:11.005Z,98687.25
2023-03-13T11:34:47.787Z,98690.81
2023-03-13T11:37:19.362Z,98672.81
2023-03-13T11:39:51.907Z,98673.41
2023-03-13T11:42:43.556Z,98670.72
2023-03-13T11:45:47.051Z,98668.63
2023-03-13T11:48:50.140Z,98652.47
2023-03-13T11:52:01.597Z,98644.38
2023-03-13T11:54:53.186Z,98640.13
2023-03-13T11:57:39.271Z,98629.88
2023-03-13T12:00:29.003Z,98625.34
2023-03-13T12:02:58.138Z,98609.72
2023-03-13T12:05:28.530Z,98600.38
2023-03-13T12:08:10.794Z,98592.38
2023-03-13T12:10:46.139Z,98588.94
2023-03-13T12:13:36.305Z,98579.34
2023-03-13T12:16:13.330Z,98579.13
2023-03-13T12:18:43.561Z,98583.97
2023-03-13T12:21:35.612Z,98555.38
2023-03-13T12:24:25.587Z,98557.81
2023-03-13T12:27:02.447Z,98554.75
2023-03-13T12:30:00.136Z,98548.25
2023-03-13T12:32:40.437Z,98529.28
2023-03-13T12:35:42.449Z,98529.28
2023-03-13T12:38:22.959Z,98525.69
2023-03-13T12:41:01.657Z,98510.53
2023-03-13T12:43:33.975Z,98495.66
2023-03-13T12:46:20.119Z,98481.00
2023-03-13T12:49:31.299Z,98481.00
2023-03-13T12:52:32.858Z,98476.78
2023-03-13T12:55:41.605Z,98468.41
2023-03-13T12:58:31.390Z,98469.28
2023-03-13T13:01:05.585Z,98460.09
2023-03-13T13:03:53.759Z,98458.50
2023-03-13T13:06:21.082Z,98453.94
2023-03-13T13:08:53.958Z,98461.22
2023-03-13T13:11:39.062Z,98452.06
2023-03-13T13:14:18.133Z,98438.53
2023-03-13T13:16:50.183Z,98426.94
2023-03-13T13:19:23.220Z,98412.56
2023-03-13T13:22:37.167Z,98416.88
2023-03-13T13:25:10.195Z,98415.47
2023-03-13T13:27:37.031Z,98401.94
2023-03-13T13:30:32.590Z,98397.59
2023-03-13T13:33:20.136Z,98390.19
2023-03-13T13:36:08.202Z,98386.91
2023-03-13T13:38:41.424Z,98369.75
2023-03-13T13:41:11.215Z,98369.88
2023-03-13T13:43:43.830Z,98362.19
2023-03-13T13:46:34.180Z,98347.88
2023-03-13T13:49:07.631Z,98343.31
2023-03-13T13:51:39.777Z,98336.63
2023-03-13T13:54:12.652Z,98322.09
2023-03-13T13:56:45.320Z,98313.50
2023-03-13T13:59:21.338Z,98308.47
2023-03-13T14:02:10.246Z,98305.63
2023-03-13T14:05:08.217Z,98303.53
2023-03-13T14:07:51.986Z,98303.09
2023-03-13T14:10:37.828Z,98284.84
2023-03-13T14:13:22.437Z,98277.44
2023-03-13T14:15:54.796Z,98301.59
2023-03-13T14:18:30.636Z,98271.72
2023-03-13T14:21:04.485Z,98263.91
2023-03-13T14:23:42.869Z,98257.56
2023-03-13T14:26:21.535Z,98243.53
2023-03-13T14:28:55.333Z,98239.53
2023-03-13T14:31:31.023Z,98231.41
2023-03-13T14:34:00.993Z,98219.25
2023-03-13T14:36:29.895Z,98217.03
2023-03-13T14:38:59.515Z,98217.47
2023-03-13T14:41:37.634Z,98206.22
2023-03-13T14:44:23.340Z,98189.38
2023-03-13T14:46:56.627Z,98182.34
2023-03-13T14:49:29.450Z,98178.94
2023-03-13T14:52:02.496Z,98173.91
2023-03-13T14:54:35.577Z,98168.38
2023-03-13T14:57:16.183Z,98146.59
2023-03-13T14:59:44.087Z,98141.66
2023-03-13T15:02:26.832Z,98145.09
2023-03-13T15:04:59.944Z,98138.97
2023-03-13T15:07:41.982Z,98133.09
2023-03-13T15:10:22.365Z,98119.91
2023-03-13T15:12:51.360Z,98124.06
2023-03-13T15:15:18.739Z,98125.03
2023-03-13T15:17:45.989Z,98117.00
2023-03-13T15:20:15.333Z,98113.16
2023-03-13T15:22:46.098Z,98106.72
2023-03-13T15:25:21.613Z,98106.31
2023-03-13T15:27:52.436Z,98104.22
2023-03-13T15:30:23.460Z,98096.09
2023-03-13T15:32:50.574Z,98105.59
2023-03-13T15:35:28.912Z,98095.16
2023-03-13T15:37:58.230Z,98097.16
2023-03-13T15:40:27.242Z,98096.72
2023-03-13T15:42:55.655Z,98098.94
2023-03-13T15:45:22.959Z,98100.94
2023-03-13T15:47:50.046Z,98091.50
2023-03-13T15:50:22.359Z,98084.25
2023-03-13T15:52:49.431Z,98074.91
2023-03-13T15:55:16.364Z,98069.59
2023-03-13T15:57:50.439Z,98066.69
2023-03-13T16:00:25.412Z,98058.59
2023-03-13T16:02:52.590Z,98054.06
2023-03-13T16:05:19.558Z,98042.25
2023-03-13T16:07:46.590Z,98032.59
2023-03-13T16:10:19.988Z,98037.47
2023-03-13T16:12:46.983Z,98033.78
2023-03-13T16:15:13.916Z,98030.63
2023-03-13T16:17:40.894Z,98021.19
2023-03-13T16:20:21.587Z,98024.50
2023-03-13T16:22:48.550Z,98019.47
2023-03-13T16:25:15.961Z,98011.41
2023-03-13T16:27:43.181Z,98019.84
2023-03-13T16:30:28.085Z,98009.59
2023-03-13T16:32:55.418Z,98042.66
2023-03-13T16:35:23.852Z,98059.31
2023-03-13T16:37:50.918Z,98055.16
2023-03-13T16:40:23.336Z,98049.91
2023-03-13T16:42:50.386Z,98044.72
2023-03-13T16:45:17.738Z,98053.59
2023-03-13T16:47:49.034Z,98052.16
2023-03-13T16:50:36.264Z,98063.16
2023-03-13T16:53:03.740Z,98058.75
2023-03-13T16:55:36.066Z,98057.75
2023-03-13T16:58:04.056Z,98051.97
2023-03-13T17:00:32.504Z,98064.28
2023-03-13T17:02:59.709Z,98035.78
2023-03-13T17:05:27.395Z,98050.16
2023-03-13T17:07:55.009Z,98056.44
2023-03-13T17:10:31.609Z,98072.13
2023-03-13T17:12:59.226Z,98076.22
2023-03-13T17:15:28.728Z,98067.38
2023-03-13T17:17:56.056Z,98049.06
2023-03-13T17:20:27.730Z,98041.56
2023-03-13T17:22:58.448Z,98044.31
2023-03-13T17:25:25.552Z,98033.84
2023-03-13T17:27:53.356Z,98034.44
2023-03-13T17:30:28.336Z,98034.72
2023-03-13T17:32:55.559Z,98040.69
2023-03-13T17:35:23.688Z,98039.34
2023-03-13T17:37:51.016Z,98046.06
2023-03-13T17:40:24.978Z,98040.72
2023-03-13T17:42:51.946Z,98039.66
2023-03-13T17:45:19.314Z,98051.47
2023-03-13T17:47:47.211Z,98043.94
2023-03-13T17:50:26.820Z,98022.69
2023-03-13T17:52:54.341Z,98029.41
2023-03-13T17:55:24.365Z,98029.97
2023-03-13T17:57:53.147Z,98016.50
2023-03-13T18:00:31.688Z,98021.88
2023-03-13T18:02:59.550Z,98001.72
2023-03-13T18:05:27.201Z,97975.13
2023-03-13T18:07:57.616Z,97982.09
2023-03-13T18:10:28.233Z,97986.41
2023-03-13T18:12:55.434Z,97986.09
2023-03-13T18:15:24.833Z,98032.56
2023-03-13T18:17:52.453Z,98062.41
2023-03-13T18:20:27.282Z,98077.69
2023-03-13T18:22:59.213Z,98070.19
2023-03-13T18:25:29.665Z,98032.53
2023-03-13T18:27:56.801Z,97999.22
2023-03-13T18:30:27.111Z,97970.72
2023-03-13T18:32:54.380Z,97978.75
2023-03-13T18:35:21.316Z,97988.16
2023-03-13T18:37:48.896Z,97999.94
2023-03-13T18:40:21.546Z,98009.84
2023-03-13T18:42:48.612Z,98013.31
2023-03-13T18:45:18.696Z,98017.84
2023-03-13T18:47:45.930Z,98015.16
2023-03-13T18:50:26.138Z,97997.41
2023-03-13T18:52:55.386Z,97988.81
2023-03-13T18:55:25.780Z,97975.91
2023-03-13T18:57:52.975Z,97989.34
2023-03-13T19:00:26.742Z,98011.88
2023-03-13T19:02:53.842Z,98027.97
2023-03-13T19:05:20.975Z,98047.56
2023-03-13T19:07:48.382Z,98047.56
2023-03-13T19:10:26.485Z,98054.81
2023-03-13T19:12:55.231Z,98077.34
2023-03-13T19:15:26.175Z,98102.00
2023-03-13T19:17:53.918Z,98132.06
2023-03-13T19:20:23.297Z,98124.47
2023-03-13T19:22:50.210Z,98135.13
2023-03-13T19:25:17.506Z,98135.59
2023-03-13T19:27:45.702Z,98146.22
2023-03-13T19:30:23.252Z,98157.94
2023-03-13T19:32:50.490Z,98187.31
2023-03-13T19:35:18.896Z,98203.25
2023-03-13T19:37:46.563Z,98207.38
2023-03-13T19:40:28.761Z,98211.19
2023-03-13T19:42:55.745Z,98200.03
2023-03-13T19:45:22.749Z,98213.22
2023-03-13T19:47:49.893Z,98218.38
2023-03-13T19:50:27.407Z,98248.94
2023-03-13T19:52:54.371Z,98225.75
2023-03-13T19:55:21.290Z,98213.03
2023-03-13T19:57:48.336Z,98218.25
2023-03-13T20:00:27.855Z,98221.78
2023-03-13T20:02:55.541Z,98213.69
2023-03-13T20:05:23.125Z,98208.47
2023-03-13T20:07:50.092Z,98205.94
2023-03-13T20:10:17.102Z,98204.78
2023-03-13T20:12:44.030Z,98203.91
2023-03-13T20:15:11.847Z,98184.06
2023-03-13T20:17:38.840Z,98181.53
2023-03-13T20:20:08.261Z,98180.31
2023-03-13T20:22:35.356Z,98159.31
2023-03-13T20:25:02.293Z,98130.00
2023-03-13T20:27:29.225Z,98124.69
2023-03-13T20:29:56.189Z,98112.19
2023-03-13T20:32:23.145Z,98108.75
2023-03-13T20:34:50.122Z,98084.56
2023-03-13T20:37:17.072Z,98072.66
2023-03-13T20:39:44.031Z,98059.19
2023-03-13T20:42:11.529Z,98046.56
2023-03-13T20:44:38.623Z,98055.28
2023-03-13T20:47:05.638Z,98071.19
2023-03-13T20:49:34.459Z,98059.63
2023-03-13T20:52:01.515Z,98062.19
2023-03-13T20:54:28.549Z,98065.53
2023-03-13T20:56:55.491Z,98067.06
2023-03-13T20:59:22.399Z,98061.59
2023-03-13T21:01:49.333Z,98061.50
2023-03-13T21:04:16.295Z,98057.19
2023-03-13T21:06:43.256Z,98063.22
2023-03-13T21:09:10.185Z,98042.13
2023-03-13T21:11:37.184Z,98029.03
2023-03-13T21:14:04.132Z,98030.34
2023-03-13T21:16:31.184Z,98053.75
2023-03-13T21:18:58.089Z,98052.94
2023-03-13T21:21:25.094Z,98053.50
2023-03-13T21:23:53.037Z,98055.84
2023-03-13T21:26:20.481Z,98049.94
2023-03-13T21:28:47.916Z,98032.53
2023-03-13T21:31:17.873Z,98039.72
2023-03-13T21:33:46.721Z,98026.06
2023-03-13T21:36:17.858Z,98038.81
2023-03-13T21:38:45.527Z,98023.06
2023-03-13T21:41:16.144Z,98034.75
2023-03-13T21:43:43.751Z,98025.97
2023-03-13T21:46:17.024Z,98034.41
2023-03-13T21:51:17.657Z,98025.59
2023-03-13T21:53:44.825Z,98024.22
2023-03-13T21:56:16.563Z,98009.03
2023-03-13T21:58:45.439Z,97998.63
2023-03-13T22:01:13.258Z,97997.56
2023-03-13T22:03:40.948Z,97983.44
2023-03-13T22:06:20.565Z,97985.53
2023-03-13T22:08:49.655Z,97984.47
2023-03-13T22:11:17.043Z,97981.81
2023-03-13T22:13:44.470Z,97981.81
2023-03-13T22:16:11.678Z,97984.47
2023-03-13T22:18:39.896Z,98002.09
2023-03-13T22:21:07.156Z,98012.19
2023-03-13T22:23:34.143Z,98009.53
2023-03-13T22:26:01.160Z,98010.34
2023-03-13T22:28:28.433Z,98000.94
2023-03-13T22:30:55.439Z,98015.88
2023-03-13T22:33:22.374Z,98011.38
2023-03-13T22:35:54.519Z,98007.88
2023-03-13T22:38:21.934Z,97980.66
2023-03-13T22:40:57.769Z,97971.03
2023-03-13T22:43:24.733Z,97967.31
2023-03-13T22:45:52.101Z,97962.00
2023-03-13T22:48:19.047Z,97966.53
2023-03-13T22:50:46.132Z,97968.38
2023-03-13T22:53:13.545Z,97975.31
2023-03-13T22:55:40.469Z,97956.09
2023-03-13T22:58:07.679Z,97952.38
2023-03-13T23:00:34.610Z,97952.16
2023-03-13T23:03:01.529Z,97948.09
2023-03-13T23:05:28.546Z,97948.91
2023-03-13T23:07:55.459Z,97964.09
2023-03-13T23:10:22.424Z,97995.28
2023-03-13T23:12:49.313Z,97998.75
2023-03-13T23:15:16.243Z,98011.25
2023-03-13T23:17:43.163Z,98020.06
2023-03-13T23:20:13.034Z,98028.06
2023-03-13T23:22:45.966Z,98043.47
2023-03-13T23:25:14.044Z,98042.44
2023-03-13T23:27:42.023Z,98041.38
2023-03-13T23:30:12.399Z,98052.06
2023-03-13T23:32:44.403Z,98035.50
2023-03-13T23:35:12.991Z,98048.09
2023-03-13T23:37:40.038Z,98043.56
2023-03-13T23:40:10.296Z,98057.94
2023-03-13T23:42:37.254Z,98067.56
2023-03-13T23:45:05.554Z,98077.66
2023-03-13T23:47:33.333Z,98074.19
2023-03-13T23:50:00.317Z,98067.00
2023-03-13T23:52:27.398Z,98064.56
2023-03-13T23:54:54.365Z,98069.09
2023-03-13T23:57:21.258Z,98075.22
2023-03-13T23:59:49.089Z,98081.59
